createdAt,value
2023-02-12T00:00:00.491Z,88.9
2023-02-12T00:05:00.489Z,88.4
2023-02-12T00:10:00.483Z,89.0
2023-02-12T00:15:00.510Z,88.3
2023-02-12T00:20:00.449Z,87.9
2023-02-12T00:25:00.556Z,88.3
2023-02-12T00:30:00.496Z,88.2
2023-02-12T00:35:00.485Z,87.5
2023-02-12T00:40:00.451Z,87.2
2023-02-12T00:45:00.492Z,87.6
2023-02-12T00:50:00.481Z,87.4
2023-02-12T00:55:00.441Z,88.2
2023-02-12T01:00:00.508Z,89.0
2023-02-12T01:05:00.537Z,88.4
2023-02-12T01:10:00.480Z,88.2
2023-02-12T01:15:00.476Z,88.3
2023-02-12T01:20:00.444Z,87.6
2023-02-12T01:25:00.485Z,87.7
2023-02-12T01:30:00.458Z,87.8
2023-02-12T01:35:00.484Z,88.1
2023-02-12T01:40:00.487Z,87.7
2023-02-12T01:45:00.479Z,87.5
2023-02-12T01:50:00.476Z,88.2
2023-02-12T01:55:00.491Z,87.6
2023-02-12T02:00:00.478Z,87.9
2023-02-12T02:05:00.500Z,87.3
2023-02-12T02:10:00.443Z,87.3
2023-02-12T02:15:00.506Z,88.0
2023-02-12T02:20:00.478Z,87.1
2023-02-12T02:25:00.473Z,87.5
2023-02-12T02:30:00.498Z,87.1
2023-02-12T02:35:00.507Z,87.6
2023-02-12T02:40:00.459Z,88.5
2023-02-12T02:45:00.462Z,87.3
2023-02-12T02:50:00.484Z,86.7
2023-02-12T02:55:00.440Z,87.1
2023-02-12T03:00:00.481Z,86.9
2023-02-12T03:05:00.517Z,87.0
2023-02-12T03:10:00.458Z,87.2
2023-02-12T03:15:00.466Z,87.6
2023-02-12T03:20:00.473Z,87.5
2023-02-12T03:25:00.496Z,87.8
2023-02-12T03:30:00.445Z,88.1
2023-02-12T03:35:00.490Z,87.7
2023-02-12T03:40:00.496Z,87.6
2023-02-12T03:45:00.490Z,86.8
2023-02-12T03:50:00.461Z,87.0
2023-02-12T03:55:00.501Z,87.4
2023-02-12T04:00:00.455Z,88.9
2023-02-12T04:05:00.472Z,89.1
2023-02-12T04:10:00.462Z,88.7
2023-02-12T04:15:00.491Z,88.8
2023-02-12T04:20:00.450Z,89.0
2023-02-12T04:25:00.475Z,89.0
2023-02-12T04:30:00.468Z,89.3
2023-02-12T04:35:00.489Z,89.1
2023-02-12T04:40:00.440Z,89.4
2023-02-12T04:45:00.490Z,90.3
2023-02-12T04:50:00.498Z,90.2
2023-02-12T04:55:00.451Z,90.2
2023-02-12T05:00:00.513Z,90.5
2023-02-12T05:05:00.574Z,90.5
2023-02-12T05:10:00.488Z,90.4
2023-02-12T05:15:00.467Z,90.8
2023-02-12T05:20:00.488Z,91.3
2023-02-12T05:25:00.455Z,91.4
2023-02-12T05:30:00.478Z,91.2
2023-02-12T05:35:00.483Z,91.1
2023-02-12T05:40:00.481Z,91.0
2023-02-12T05:45:00.449Z,90.6
2023-02-12T05:50:00.691Z,91.0
2023-02-12T05:55:00.471Z,91.1
2023-02-12T06:00:00.467Z,90.3
2023-02-12T06:05:00.480Z,90.7
2023-02-12T06:10:00.457Z,90.7
2023-02-12T06:15:00.497Z,91.1
2023-02-12T06:20:00.483Z,91.0
2023-02-12T06:25:00.505Z,90.9
2023-02-12T06:30:00.445Z,91.2
2023-02-12T06:35:00.472Z,91.4
2023-02-12T06:40:00.484Z,91.0
2023-02-12T06:45:00.484Z,91.0
2023-02-12T06:50:00.490Z,90.7
2023-02-12T06:55:00.465Z,90.4
2023-02-12T07:00:00.568Z,90.4
2023-02-12T07:05:00.489Z,90.1
2023-02-12T07:10:00.472Z,90.4
2023-02-12T07:15:00.480Z,90.2
2023-02-12T07:20:00.475Z,90.2
2023-02-12T07:25:00.471Z,90.2
2023-02-12T07:30:00.473Z,90.5
2023-02-12T07:35:00.491Z,90.6
2023-02-12T07:40:00.485Z,90.9
2023-02-12T07:45:00.456Z,90.7
2023-02-12T07:50:00.488Z,91.3
2023-02-12T07:55:00.477Z,91.1
2023-02-12T08:00:00.472Z,91.4
2023-02-12T08:05:00.469Z,91.9
2023-02-12T08:10:00.492Z,92.1
2023-02-12T08:15:00.488Z,91.8
2023-02-12T08:20:00.505Z,91.7
2023-02-12T08:25:00.511Z,91.5
2023-02-12T08:30:00.448Z,91.1
2023-02-12T08:35:00.490Z,91.1
2023-02-12T08:40:00.492Z,91.3
2023-02-12T08:45:00.587Z,91.2
2023-02-12T08:50:00.480Z,91.1
2023-02-12T08:55:00.472Z,91.0
2023-02-12T09:00:00.507Z,91.1
2023-02-12T09:05:00.481Z,90.9
2023-02-12T09:10:00.469Z,90.8
2023-02-12T09:15:00.484Z,90.6
2023-02-12T09:20:00.468Z,90.4
2023-02-12T09:25:00.506Z,90.4
2023-02-12T09:30:00.476Z,90.6
2023-02-12T09:35:00.489Z,90.5
2023-02-12T09:40:00.484Z,89.8
2023-02-12T09:45:00.472Z,90.2
2023-02-12T09:50:00.488Z,89.8
2023-02-12T09:55:00.487Z,89.8
2023-02-12T10:00:00.478Z,89.4
2023-02-12T10:05:02.230Z,89.1
2023-02-12T10:10:00.459Z,89.4
2023-02-12T10:15:00.499Z,89.1
2023-02-12T10:20:00.479Z,89.4
2023-02-12T10:25:00.513Z,89.6
2023-02-12T10:30:00.492Z,89.3
2023-02-12T10:35:00.486Z,89.8
2023-02-12T10:40:00.504Z,89.6
2023-02-12T10:45:00.462Z,89.4
2023-02-12T10:50:00.480Z,89.3
2023-02-12T10:55:00.495Z,89.4
2023-02-12T11:00:00.464Z,89.3
2023-02-12T11:05:00.553Z,89.6
2023-02-12T11:10:00.492Z,89.7
2023-02-12T11:15:00.492Z,89.5
2023-02-12T11:20:00.496Z,89.7
2023-02-12T11:25:00.497Z,89.3
2023-02-12T11:30:00.477Z,90.0
2023-02-12T11:35:00.641Z,90.4
2023-02-12T11:40:00.504Z,90.2
2023-02-12T11:45:00.471Z,90.1
2023-02-12T11:50:00.526Z,90.5
2023-02-12T11:55:00.450Z,90.4
2023-02-12T12:00:00.477Z,90.2
2023-02-12T12:05:00.502Z,90.7
2023-02-12T12:10:00.494Z,90.2
2023-02-12T12:15:00.478Z,90.3
2023-02-12T12:20:00.495Z,90.5
2023-02-12T12:25:00.517Z,90.7
2023-02-12T12:30:00.485Z,90.8
2023-02-12T12:35:00.478Z,91.0
2023-02-12T12:40:00.495Z,91.0
2023-02-12T12:45:00.477Z,90.9
2023-02-12T12:50:00.476Z,90.2
2023-02-12T12:55:00.483Z,90.2
2023-02-12T13:00:00.553Z,90.1
2023-02-12T13:05:00.467Z,89.9
2023-02-12T13:10:00.488Z,89.9
2023-02-12T13:15:00.471Z,89.9
2023-02-12T13:20:00.461Z,90.1
2023-02-12T13:25:00.480Z,89.8
2023-02-12T13:30:00.476Z,89.7
2023-02-12T13:35:00.471Z,88.8
2023-02-12T13:40:00.489Z,87.7
2023-02-12T13:45:00.456Z,86.6
2023-02-12T13:50:00.476Z,86.1
2023-02-12T13:55:00.482Z,86.0
2023-02-12T14:00:00.446Z,85.1
2023-02-12T14:05:00.494Z,86.1
2023-02-12T14:10:00.472Z,86.8
2023-02-12T14:15:00.487Z,87.3
2023-02-12T14:20:00.447Z,87.4
2023-02-12T14:25:00.483Z,87.5
2023-02-12T14:30:00.463Z,87.7
2023-02-12T14:35:00.507Z,87.6
2023-02-12T14:40:00.477Z,88.0
2023-02-12T14:45:00.491Z,87.9
2023-02-12T14:50:00.449Z,88.5
2023-02-12T14:55:00.487Z,88.2
2023-02-12T15:00:00.455Z,87.7
2023-02-12T15:05:00.565Z,88.2
2023-02-12T15:10:00.495Z,87.8
2023-02-12T15:15:00.769Z,87.4
2023-02-12T15:20:00.453Z,86.5
2023-02-12T15:25:00.476Z,86.3
2023-02-12T15:30:00.476Z,86.4
2023-02-12T15:35:00.449Z,86.7
2023-02-12T15:40:02.489Z,86.6
2023-02-12T15:45:00.752Z,86.6
2023-02-12T15:50:00.488Z,86.3
2023-02-12T15:55:00.502Z,86.0
2023-02-12T16:00:00.458Z,85.8
2023-02-12T16:05:00.485Z,85.6
2023-02-12T16:10:00.493Z,85.2
2023-02-12T16:15:00.472Z,85.0
2023-02-12T16:20:00.463Z,84.3
2023-02-12T16:25:00.665Z,84.1
2023-02-12T16:30:00.487Z,84.1
2023-02-12T16:35:00.492Z,84.1
2023-02-12T16:40:00.503Z,84.0
2023-02-12T16:45:00.458Z,83.6
2023-02-12T16:50:00.464Z,84.4
2023-02-12T16:55:00.655Z,85.0
2023-02-12T17:00:00.481Z,84.7
2023-02-12T17:05:00.479Z,85.0
2023-02-12T17:10:00.488Z,85.1
2023-02-12T17:15:00.469Z,85.1
2023-02-12T17:20:00.490Z,85.4
2023-02-12T17:25:00.493Z,85.4
2023-02-12T17:30:00.506Z,85.3
2023-02-12T17:35:00.464Z,85.4
2023-02-12T17:40:00.506Z,85.7
2023-02-12T17:45:00.505Z,85.6
2023-02-12T17:50:00.502Z,85.7
2023-02-12T17:55:00.452Z,85.7
2023-02-12T18:00:00.490Z,86.0
2023-02-12T18:05:00.503Z,86.4
2023-02-12T18:10:00.481Z,86.5
2023-02-12T18:15:00.445Z,86.7
2023-02-12T18:20:00.497Z,86.9
2023-02-12T18:25:00.466Z,87.0
2023-02-12T18:30:00.509Z,87.2
2023-02-12T18:35:00.524Z,87.0
2023-02-12T18:40:00.539Z,86.9
2023-02-12T18:45:00.458Z,86.9
2023-02-12T18:50:00.505Z,87.2
2023-02-12T18:55:00.460Z,87.1
2023-02-12T19:00:00.786Z,87.2
2023-02-12T19:05:00.478Z,86.9
2023-02-12T19:10:00.484Z,86.8
2023-02-12T19:15:00.456Z,86.8
2023-02-12T19:20:00.506Z,87.0
2023-02-12T19:25:00.447Z,87.3
2023-02-12T19:30:00.505Z,87.3
2023-02-12T19:35:00.469Z,87.3
2023-02-12T19:40:00.720Z,87.3
2023-02-12T19:45:01.503Z,87.2
2023-02-12T19:50:00.500Z,87.1
2023-02-12T19:55:00.488Z,87.3
2023-02-12T20:00:00.470Z,87.3
2023-02-12T20:05:00.494Z,87.3
2023-02-12T20:10:00.493Z,87.3
2023-02-12T20:15:01.497Z,87.7
2023-02-12T20:20:00.481Z,87.6
2023-02-12T20:25:00.482Z,87.9
2023-02-12T20:30:00.477Z,87.8
2023-02-12T20:35:00.477Z,87.6
2023-02-12T20:40:00.628Z,87.5
2023-02-12T20:45:00.499Z,88.0
2023-02-12T20:50:00.448Z,88.1
2023-02-12T20:55:00.486Z,87.7
2023-02-12T21:00:00.481Z,87.1
2023-02-12T21:05:00.526Z,87.2
2023-02-12T21:10:00.462Z,87.1
2023-02-12T21:15:00.481Z,87.2
2023-02-12T21:20:00.494Z,87.2
2023-02-12T21:25:00.451Z,87.4
2023-02-12T21:30:00.478Z,87.7
2023-02-12T21:35:00.476Z,87.4
2023-02-12T21:40:00.492Z,87.2
2023-02-12T21:45:00.476Z,87.0
2023-02-12T21:50:00.495Z,87.4
2023-02-12T21:55:00.473Z,86.9
2023-02-12T22:00:00.519Z,87.3
2023-02-12T22:05:00.441Z,87.2
2023-02-12T22:10:00.474Z,87.1
2023-02-12T22:15:00.466Z,87.2
2023-02-12T22:20:00.483Z,87.1
2023-02-12T22:25:00.442Z,87.0
2023-02-12T22:30:00.467Z,87.0
2023-02-12T22:35:00.436Z,86.9
2023-02-12T22:40:00.494Z,86.7
2023-02-12T22:45:00.465Z,86.8
2023-02-12T22:50:00.465Z,86.8
2023-02-12T22:55:00.469Z,86.9
2023-02-12T23:00:00.461Z,86.6
2023-02-12T23:05:00.473Z,86.6
2023-02-12T23:10:00.453Z,86.9
2023-02-12T23:15:00.466Z,86.6
2023-02-12T23:20:00.454Z,86.8
2023-02-12T23:25:00.479Z,87.1
2023-02-12T23:30:00.471Z,86.8
2023-02-12T23:35:00.478Z,86.9
2023-02-12T23:40:00.476Z,86.7
2023-02-12T23:45:00.475Z,86.7
2023-02-12T23:50:00.455Z,86.7
2023-02-12T23:55:00.654Z,87.2
